createdAt,value
2023-04-03T00:01:50.960Z,12.70
2023-04-03T00:04:19.964Z,12.70
2023-04-03T00:06:49.036Z,12.70
2023-04-03T00:09:18.308Z,12.70
2023-04-03T00:11:48.124Z,12.70
2023-04-03T00:14:17.297Z,12.70
2023-04-03T00:16:47.998Z,12.70
2023-04-03T00:19:17.370Z,12.70
2023-04-03T00:21:46.658Z,12.70
2023-04-03T00:24:15.772Z,12.70
2023-04-03T00:26:45.092Z,12.60
2023-04-03T00:29:14.128Z,12.60
2023-04-03T00:31:43.268Z,12.60
2023-04-03T00:34:13.752Z,12.60
2023-04-03T00:36:42.969Z,12.60
2023-04-03T00:39:12.016Z,12.60
2023-04-03T00:41:41.433Z,12.50
2023-04-03T00:45:22.552Z,12.60
2023-04-03T00:47:52.400Z,12.50
2023-04-03T00:50:22.894Z,12.50
2023-04-03T00:52:53.870Z,12.50
2023-04-03T00:55:23.546Z,12.50
2023-04-03T00:57:53.750Z,12.50
2023-04-03T01:00:27.135Z,12.50
2023-04-03T01:02:59.144Z,12.50
2023-04-03T01:05:30.428Z,12.50
2023-04-03T01:08:00.729Z,12.40
2023-04-03T01:10:31.317Z,12.40
2023-04-03T01:13:04.316Z,12.40
2023-04-03T01:15:36.101Z,12.40
2023-04-03T01:18:06.498Z,12.40
2023-04-03T01:21:23.460Z,12.40
2023-04-03T01:24:08.292Z,12.40
2023-04-03T01:26:37.596Z,12.40
2023-04-03T01:29:06.811Z,12.40
2023-04-03T01:31:51.921Z,12.40
2023-04-03T01:34:25.486Z,12.30
2023-04-03T01:36:55.534Z,12.30
2023-04-03T01:39:28.385Z,12.30
2023-04-03T01:41:57.484Z,12.30
2023-04-03T01:44:33.915Z,12.40
2023-04-03T01:47:04.755Z,12.30
2023-04-03T01:49:33.778Z,12.30
2023-04-03T01:52:03.111Z,12.20
2023-04-03T01:54:32.225Z,12.20
2023-04-03T01:57:01.290Z,12.20
2023-04-03T01:59:30.503Z,12.20
2023-04-03T02:01:59.664Z,12.20
2023-04-03T02:04:30.235Z,12.20
2023-04-03T02:06:59.367Z,12.20
2023-04-03T02:09:28.455Z,12.20
2023-04-03T02:11:57.690Z,12.20
2023-04-03T02:14:28.537Z,12.00
2023-04-03T02:16:57.764Z,12.10
2023-04-03T02:19:26.772Z,12.20
2023-04-03T02:21:57.130Z,12.10
2023-04-03T02:24:26.262Z,12.10
2023-04-03T02:26:55.477Z,12.10
2023-04-03T02:29:24.822Z,12.10
2023-04-03T02:31:54.207Z,12.10
2023-04-03T02:34:24.679Z,12.10
2023-04-03T02:36:56.250Z,12.10
2023-04-03T02:39:25.300Z,12.10
2023-04-03T02:41:54.500Z,12.10
2023-04-03T02:44:26.971Z,12.00
2023-04-03T02:46:56.144Z,12.10
2023-04-03T02:49:26.115Z,12.00
2023-04-03T02:51:56.527Z,12.00
2023-04-03T02:54:28.843Z,12.00
2023-04-03T02:57:01.142Z,12.00
2023-04-03T02:59:30.441Z,12.10
2023-04-03T03:01:59.654Z,11.90
2023-04-03T03:04:29.000Z,11.90
2023-04-03T03:07:00.713Z,11.90
2023-04-03T03:09:31.952Z,11.90
2023-04-03T03:12:01.312Z,11.90
2023-04-03T03:14:32.679Z,11.90
2023-04-03T03:17:01.760Z,11.80
2023-04-03T03:19:30.897Z,11.90
2023-04-03T03:22:01.251Z,11.90
2023-04-03T03:24:30.491Z,11.80
2023-04-03T03:26:59.486Z,11.80
2023-04-03T03:29:28.520Z,11.80
2023-04-03T03:31:57.625Z,11.80
2023-04-03T03:34:26.686Z,11.70
2023-04-03T03:36:56.124Z,11.80
2023-04-03T03:39:26.606Z,11.70
2023-04-03T03:41:55.729Z,11.70
2023-04-03T03:44:24.903Z,11.70
2023-04-03T03:46:55.640Z,11.70
2023-04-03T03:49:24.851Z,11.70
2023-04-03T03:51:54.201Z,11.60
2023-04-03T03:54:23.594Z,11.70
2023-04-03T03:56:55.453Z,11.60
2023-04-03T03:59:27.242Z,11.60
2023-04-03T04:01:56.562Z,11.60
2023-04-03T04:04:27.784Z,11.60
2023-04-03T04:06:57.835Z,11.50
2023-04-03T04:09:26.924Z,11.50
2023-04-03T04:11:57.561Z,11.50
2023-04-03T04:14:29.285Z,11.50
2023-04-03T04:17:03.400Z,11.50
2023-04-03T04:19:32.728Z,11.50
2023-04-03T04:22:01.846Z,11.40
2023-04-03T04:24:36.143Z,11.40
2023-04-03T04:27:07.950Z,11.40
2023-04-03T04:29:38.268Z,11.40
2023-04-03T04:32:09.915Z,11.40
2023-04-03T04:34:39.248Z,11.30
2023-04-03T04:37:08.727Z,11.30
2023-04-03T04:39:40.130Z,11.40
2023-04-03T04:42:14.661Z,11.30
2023-04-03T04:44:46.791Z,11.30
2023-04-03T04:47:17.149Z,11.30
2023-04-03T04:49:48.501Z,11.20
2023-04-03T04:52:18.031Z,11.20
2023-04-03T04:54:48.044Z,11.20
2023-04-03T04:57:18.866Z,11.20
2023-04-03T04:59:49.425Z,11.20
2023-04-03T05:02:18.466Z,11.20
2023-04-03T05:04:48.070Z,11.20
2023-04-03T05:07:23.058Z,11.20
2023-04-03T05:09:52.209Z,11.20
2023-04-03T05:12:23.068Z,11.20
2023-04-03T05:14:57.910Z,11.20
2023-04-03T05:17:28.756Z,11.10
2023-04-03T05:19:59.477Z,11.10
2023-04-03T05:22:29.898Z,11.10
2023-04-03T05:25:05.098Z,11.10
2023-04-03T05:27:36.029Z,11.10
2023-04-03T05:30:06.676Z,11.10
2023-04-03T05:32:37.149Z,11.00
2023-04-03T05:35:17.637Z,11.00
2023-04-03T05:37:49.314Z,11.00
2023-04-03T05:40:19.607Z,11.00
2023-04-03T05:42:54.506Z,11.00
2023-04-03T05:45:25.946Z,11.00
2023-04-03T05:47:55.517Z,11.00
2023-04-03T05:50:27.592Z,10.90
2023-04-03T05:53:00.076Z,10.90
2023-04-03T05:55:31.623Z,10.90
2023-04-03T05:58:02.114Z,10.90
2023-04-03T06:00:31.297Z,10.90
2023-04-03T06:03:04.551Z,10.90
2023-04-03T06:05:33.743Z,10.90
2023-04-03T06:08:02.848Z,10.90
2023-04-03T06:10:33.590Z,10.90
2023-04-03T06:13:07.276Z,10.90
2023-04-03T06:15:36.323Z,10.90
2023-04-03T06:18:05.623Z,10.90
2023-04-03T06:20:35.202Z,10.90
2023-04-03T06:23:04.280Z,10.90
2023-04-03T06:25:34.648Z,10.80
2023-04-03T06:28:03.692Z,10.80
2023-04-03T06:30:34.291Z,10.90
2023-04-03T06:33:03.547Z,10.80
2023-04-03T06:35:32.677Z,10.80
2023-04-03T06:38:01.659Z,10.80
2023-04-03T06:40:30.740Z,10.80
2023-04-03T06:42:59.812Z,10.80
2023-04-03T06:45:28.776Z,10.80
2023-04-03T06:47:59.314Z,10.80
2023-04-03T06:50:28.465Z,10.90
2023-04-03T06:52:57.722Z,10.90
2023-04-03T06:55:27.081Z,10.90
2023-04-03T06:57:56.252Z,10.90
2023-04-03T07:00:25.910Z,11.00
2023-04-03T07:02:54.902Z,11.00
2023-04-03T07:05:25.754Z,11.00
2023-04-03T07:07:54.751Z,11.10
2023-04-03T07:10:23.824Z,11.20
2023-04-03T07:12:53.659Z,11.20
2023-04-03T07:15:22.962Z,11.30
2023-04-03T07:17:51.928Z,11.30
2023-04-03T07:20:21.052Z,11.40
2023-04-03T07:22:51.564Z,11.50
2023-04-03T07:25:20.976Z,11.50
2023-04-03T07:27:50.176Z,11.60
2023-04-03T07:30:19.775Z,11.70
2023-04-03T07:32:48.910Z,11.80
2023-04-03T07:35:18.445Z,11.90
2023-04-03T07:37:47.558Z,11.90
2023-04-03T07:40:19.612Z,12.00
2023-04-03T07:42:49.297Z,12.10
2023-04-03T07:45:18.512Z,12.20
2023-04-03T07:47:47.856Z,12.30
2023-04-03T07:50:17.349Z,12.30
2023-04-03T07:52:46.575Z,12.40
2023-04-03T07:55:17.077Z,12.50
2023-04-03T07:57:46.180Z,12.60
2023-04-03T08:00:18.483Z,12.70
2023-04-03T08:02:51.497Z,12.80
2023-04-03T08:05:21.573Z,12.90
2023-04-03T08:07:50.661Z,12.90
2023-04-03T08:10:21.214Z,13.00
2023-04-03T08:12:50.450Z,13.10
2023-04-03T08:15:20.000Z,13.10
2023-04-03T08:17:49.227Z,13.20
2023-04-03T08:20:18.680Z,13.30
2023-04-03T08:22:49.922Z,13.30
2023-04-03T08:25:20.446Z,13.40
2023-04-03T08:27:49.450Z,13.40
2023-04-03T08:30:18.550Z,13.40
2023-04-03T08:32:47.575Z,13.50
2023-04-03T08:35:16.949Z,13.50
2023-04-03T08:37:45.927Z,13.60
2023-04-03T08:40:18.720Z,13.60
2023-04-03T08:43:07.093Z,13.60
2023-04-03T08:45:47.041Z,13.60
2023-04-03T08:48:22.717Z,13.60
2023-04-03T08:50:57.152Z,13.70
2023-04-03T08:53:33.491Z,13.70
2023-04-03T08:56:05.673Z,13.70
2023-04-03T08:58:47.974Z,13.70
2023-04-03T09:01:22.920Z,13.80
2023-04-03T09:03:51.984Z,13.80
2023-04-03T09:06:25.214Z,13.80
2023-04-03T09:09:05.793Z,13.80
2023-04-03T09:11:48.412Z,13.80
2023-04-03T09:14:28.535Z,13.70
2023-04-03T09:17:03.235Z,13.80
2023-04-03T09:19:44.094Z,13.80
2023-04-03T09:22:19.997Z,13.80
2023-04-03T09:24:58.279Z,13.80
2023-04-03T09:27:27.499Z,13.80
2023-04-03T09:29:59.488Z,13.80
2023-04-03T09:32:32.535Z,13.70
2023-04-03T09:35:19.233Z,13.70
2023-04-03T09:37:52.109Z,13.70
2023-04-03T09:40:37.019Z,13.80
2023-04-03T09:43:28.914Z,13.70
2023-04-03T09:46:23.350Z,13.70
2023-04-03T09:49:08.213Z,13.80
2023-04-03T09:51:39.462Z,13.80
2023-04-03T09:54:34.518Z,13.80
2023-04-03T09:57:09.855Z,13.80
2023-04-03T09:59:45.066Z,13.80
2023-04-03T10:02:34.645Z,13.80
2023-04-03T10:07:46.413Z,13.80
2023-04-03T10:10:24.962Z,13.80
2023-04-03T10:13:09.402Z,13.90
2023-04-03T10:15:46.084Z,13.80
2023-04-03T10:18:34.894Z,13.90
2023-04-03T10:21:24.693Z,13.90
2023-04-03T10:24:13.303Z,14.00
2023-04-03T10:26:52.794Z,14.10
2023-04-03T10:29:42.048Z,14.10
2023-04-03T10:32:52.492Z,14.10
2023-04-03T10:35:39.811Z,14.10
2023-04-03T10:38:20.450Z,14.20
2023-04-03T10:40:57.729Z,14.30
2023-04-03T10:43:36.224Z,14.30
2023-04-03T10:46:50.709Z,14.40
